Time;durP1;ratioP1;P1;durP2;ratioP2;P2;SDS_P1;SDS_P2;PMS_P1;PMS_P2;Temp;Humidity;BMP_temperature;BMP_pressure;BME280_temperature;BME280_humidity;BME280_pressure;Samples;Min_cycle;Max_cycle;Signal;HPM_P1;HPM_P2
2023/08/17 00:01:42;;;;;;;0.93;0.83;;;;;;;22.28;78.98;99004.97;5139366;27;42461;-85
2023/08/17 00:04:09;;;;;;;1.17;0.70;;;;;;;22.30;78.00;99000.28;5121899;27;41552;-85
2023/08/17 00:06:37;;;;;;;1.43;0.70;;;;;;;22.11;78.04;98966.38;5122647;27;39964;-85
2023/08/17 00:09:07;;;;;;;0.60;0.60;;;;;;;22.22;77.70;98978.69;5122125;27;41907;-85
2023/08/17 00:11:35;;;;;;;0.93;0.63;;;;;;;22.25;77.47;98997.25;5139457;27;44475;-85
2023/08/17 00:14:02;;;;;;;1.10;0.60;;;;;;;22.25;77.81;99001.78;5121976;27;42979;-85
2023/08/17 00:16:34;;;;;;;0.63;0.63;;;;;;;22.16;77.87;98999.06;5121067;27;39052;-85
2023/08/17 00:19:04;;;;;;;0.60;0.60;;;;;;;22.07;78.00;98985.72;5138178;27;41572;-85
2023/08/17 00:21:35;;;;;;;0.73;0.70;;;;;;;21.92;78.15;98960.38;5118274;27;43786;-85
2023/08/17 00:24:03;;;;;;;0.90;0.70;;;;;;;22.01;77.91;98972.91;5104120;27;42565;-85
2023/08/17 00:26:31;;;;;;;0.80;0.80;;;;;;;22.03;77.70;98982.53;5156331;27;39708;-84
2023/08/17 00:29:02;;;;;;;0.70;0.70;;;;;;;21.88;77.62;98968.78;5121766;27;42398;-85
2023/08/17 01:15:20;;;;;;;1.00;0.90;;;;;;;21.75;81.70;98933.41;5065727;27;38922;-84
2023/08/17 01:17:58;;;;;;;2.20;1.00;;;;;;;21.61;82.89;98931.34;5119836;27;41101;-85
2023/08/17 01:20:59;;;;;;;0.70;0.70;;;;;;;21.10;83.12;98857.72;5120448;27;42349;-87
2023/08/17 01:24:00;;;;;;;1.00;0.70;;;;;;;21.36;83.90;98902.63;5110103;27;41263;-86
2023/08/17 01:42:09;;;;;;;0.90;0.77;;;;;;;21.39;81.56;98953.47;5074336;28;38782;-85
2023/08/17 01:44:37;;;;;;;0.70;0.70;;;;;;;21.41;81.40;98952.31;5043631;28;41331;-86
2023/08/17 01:47:05;;;;;;;1.77;1.20;;;;;;;21.34;81.63;98942.34;5059773;28;42065;-86
2023/08/17 02:12:04;;;;;;;2.70;0.90;;;;;;;21.17;82.02;98939.53;5132627;27;42583;-86
2023/08/17 02:14:32;;;;;;;0.80;0.80;;;;;;;21.17;81.82;98954.84;5118234;27;44790;-86
2023/08/17 02:17:00;;;;;;;1.03;0.77;;;;;;;20.92;82.00;98905.41;5118748;27;42630;-86
2023/08/17 02:19:28;;;;;;;1.53;0.80;;;;;;;20.96;82.36;98917.56;5119421;27;40088;-86
2023/08/17 02:21:56;;;;;;;1.70;1.10;;;;;;;20.94;82.42;98908.78;5118762;27;40711;-87
2023/08/17 02:24:24;;;;;;;0.80;0.70;;;;;;;21.09;82.27;98927.88;5136352;27;42806;-87
2023/08/17 02:26:54;;;;;;;0.73;0.73;;;;;;;20.87;82.22;98899.69;5119480;27;43481;-88
2023/08/17 02:29:23;;;;;;;1.13;0.93;;;;;;;20.86;83.19;98894.44;5119045;27;41308;-86
2023/08/17 02:31:51;;;;;;;0.97;0.77;;;;;;;20.95;83.91;98907.78;5118634;27;41849;-87
2023/08/17 02:34:19;;;;;;;1.67;0.80;;;;;;;20.96;84.90;98905.94;5118900;27;41979;-87
2023/08/17 02:37:10;;;;;;;1.10;0.97;;;;;;;20.69;84.28;98866.59;5150504;27;43713;-87
2023/08/17 02:39:38;;;;;;;1.17;0.80;;;;;;;20.80;84.85;98895.91;5118638;27;40157;-87
2023/08/17 02:42:05;;;;;;;0.90;0.83;;;;;;;20.92;84.47;98918.88;5137400;27;41704;-87
2023/08/17 02:44:35;;;;;;;0.83;0.83;;;;;;;20.87;84.27;98918.53;5119781;27;42865;-87
2023/08/17 02:47:04;;;;;;;1.10;0.90;;;;;;;20.85;84.18;98914.28;5136711;27;41752;-87
2023/08/17 02:49:32;;;;;;;1.40;0.80;;;;;;;20.86;83.92;98932.97;5120011;27;39901;-86
2023/08/17 02:51:59;;;;;;;2.10;0.80;;;;;;;20.66;83.71;98894.66;5137023;27;41971;-86
2023/08/17 02:54:27;;;;;;;0.67;0.67;;;;;;;20.74;84.18;98907.34;5136747;27;41935;-86
2023/08/17 02:56:55;;;;;;;0.97;0.83;;;;;;;20.65;84.55;98908.25;5119920;27;41746;-86
2023/08/17 02:59:25;;;;;;;0.87;0.80;;;;;;;20.78;83.98;98932.91;5136883;27;40090;-86
2023/08/17 03:01:54;;;;;;;2.30;0.80;;;;;;;20.71;83.76;98923.78;5120151;27;40668;-86
2023/08/17 03:04:24;;;;;;;1.53;0.83;;;;;;;20.67;83.93;98927.78;5118976;27;43022;-86
2023/08/17 03:06:52;;;;;;;0.70;0.70;;;;;;;20.72;83.23;98936.25;5119781;27;41582;-86
2023/08/17 03:09:20;;;;;;;1.00;0.90;;;;;;;20.61;83.81;98920.38;5118524;27;39051;-86
2023/08/17 03:11:48;;;;;;;0.80;0.60;;;;;;;20.64;83.61;98920.06;5134371;27;40941;-86
2023/08/17 03:14:18;;;;;;;0.93;0.60;;;;;;;20.58;83.73;98918.84;5100791;27;41863;-86
2023/08/17 03:53:37;;;;;;;1.20;0.87;;;;;;;20.26;84.02;98903.28;5113092;27;41294;-87
2023/08/17 03:56:05;;;;;;;0.97;0.73;;;;;;;20.38;83.90;98922.72;5097854;27;43829;-87
2023/08/17 03:58:34;;;;;;;1.63;0.97;;;;;;;20.37;85.03;98921.03;5097985;27;42983;-87
2023/08/17 04:01:03;;;;;;;0.83;0.83;;;;;;;20.38;84.46;98925.41;5115108;27;39372;-86
2023/08/17 04:03:32;;;;;;;1.07;1.03;;;;;;;20.37;84.24;98924.56;5098163;27;42428;-87
2023/08/17 04:06:06;;;;;;;0.87;0.80;;;;;;;20.32;83.73;98913.38;5098612;27;42785;-86
2023/08/17 04:12:34;;;;;;;1.73;0.87;;;;;;;20.11;83.28;98888.69;5122673;27;40835;-79
2023/08/17 04:15:02;;;;;;;0.80;0.67;;;;;;;20.03;83.29;98877.84;5112535;27;42059;-79
2023/08/17 04:17:30;;;;;;;2.30;0.80;;;;;;;20.03;83.15;98875.16;5112547;27;42874;-80
2023/08/17 04:19:58;;;;;;;0.77;0.70;;;;;;;20.15;83.07;98895.44;5112972;27;42572;-79
2023/08/17 04:22:26;;;;;;;0.93;0.90;;;;;;;20.33;83.21;98923.16;5095663;27;40199;-79
2023/08/17 04:24:54;;;;;;;0.63;0.63;;;;;;;20.26;82.83;98916.72;5095617;27;41639;-79
2023/08/17 04:27:22;;;;;;;0.60;0.60;;;;;;;20.40;82.57;98939.53;5112626;27;42915;-80
2023/08/17 04:29:52;;;;;;;0.80;0.70;;;;;;;20.00;82.65;98875.50;5095560;27;42336;-79
2023/08/17 04:32:20;;;;;;;0.50;0.50;;;;;;;20.34;82.97;98927.53;5095273;27;41158;-79
2023/08/17 04:34:48;;;;;;;0.90;0.80;;;;;;;20.39;82.79;98938.72;5112782;27;42003;-79
2023/08/17 04:37:16;;;;;;;1.07;0.90;;;;;;;20.19;82.74;98912.94;5112158;27;42586;-79
2023/08/17 04:39:44;;;;;;;1.17;0.80;;;;;;;20.43;82.54;98936.53;5115678;27;43075;-79
2023/08/17 04:42:19;;;;;;;0.70;0.70;;;;;;;20.47;82.95;98942.47;5116400;27;41858;-79
2023/08/17 04:44:47;;;;;;;0.77;0.70;;;;;;;20.48;83.15;98947.69;5117031;27;41863;-78
2023/08/17 04:47:16;;;;;;;1.90;0.93;;;;;;;20.51;83.33;98949.22;5098514;27;42060;-79
2023/08/17 04:49:44;;;;;;;1.20;0.83;;;;;;;20.57;82.79;98945.91;5115516;27;44279;-79
2023/08/17 04:52:12;;;;;;;1.17;0.70;;;;;;;20.63;82.54;98950.66;5115377;27;40038;-79
2023/08/17 04:54:41;;;;;;;1.03;1.00;;;;;;;20.61;82.71;98939.22;5115957;27;42040;-79
2023/08/17 04:57:08;;;;;;;2.33;1.00;;;;;;;20.74;82.69;98945.03;5099010;27;42377;-80
2023/08/17 04:59:36;;;;;;;0.90;0.70;;;;;;;20.83;83.47;98944.06;5117008;27;42517;-79
2023/08/17 05:02:04;;;;;;;0.90;0.70;;;;;;;20.88;83.08;98944.44;5116938;27;40006;-78
2023/08/17 05:04:35;;;;;;;1.03;0.77;;;;;;;20.94;83.15;98941.09;5116557;27;42722;-79
2023/08/17 05:07:02;;;;;;;0.87;0.80;;;;;;;21.00;83.07;98939.63;5099395;27;42046;-79
2023/08/17 05:09:31;;;;;;;1.20;1.00;;;;;;;20.80;83.11;98901.31;5115397;27;42403;-79
2023/08/17 05:11:59;;;;;;;1.63;0.87;;;;;;;21.12;83.15;98939.19;5098190;27;40051;-79
2023/08/17 05:14:27;;;;;;;1.03;0.93;;;;;;;21.13;82.64;98935.50;5133856;27;41696;-79
2023/08/17 05:16:56;;;;;;;0.97;0.87;;;;;;;21.19;82.42;98927.78;5115276;27;43697;-79
2023/08/17 05:19:23;;;;;;;1.77;1.00;;;;;;;21.29;82.65;98928.50;5098313;27;41692;-79
2023/08/17 05:21:53;;;;;;;0.80;0.80;;;;;;;21.40;83.26;98936.28;5097868;27;39398;-79
2023/08/17 05:24:21;;;;;;;2.13;1.07;;;;;;;21.50;82.47;98939.72;5098069;27;42143;-79
2023/08/17 05:26:49;;;;;;;1.03;0.97;;;;;;;21.58;82.24;98945.13;5114841;27;43617;-79
2023/08/17 05:29:17;;;;;;;1.03;0.90;;;;;;;21.67;81.97;98946.84;5115212;27;42143;-79
2023/08/17 05:31:44;;;;;;;0.70;0.70;;;;;;;21.75;82.15;98943.34;5115222;27;41739;-79
2023/08/17 05:34:13;;;;;;;1.03;0.93;;;;;;;21.83;82.00;98941.50;5115130;27;41804;-81
2023/08/17 05:36:40;;;;;;;2.77;1.37;;;;;;;21.77;82.36;98919.72;5115466;27;42990;-80
2023/08/17 05:39:10;;;;;;;2.40;1.40;;;;;;;21.99;82.05;98940.72;5115679;27;42302;-80
2023/08/17 05:41:37;;;;;;;1.80;1.13;;;;;;;22.03;81.79;98935.81;5116996;27;40707;-82
2023/08/17 05:44:06;;;;;;;1.03;0.80;;;;;;;22.19;81.78;98943.94;5099756;27;41708;-83
2023/08/17 05:46:34;;;;;;;1.10;1.00;;;;;;;22.27;81.22;98941.25;5116668;27;42816;-82
2023/08/17 05:49:02;;;;;;;2.00;1.10;;;;;;;22.39;81.13;98942.59;5098733;27;41234;-81
2023/08/17 05:51:30;;;;;;;1.47;1.10;;;;;;;22.57;80.87;98945.97;5115678;27;40011;-81
2023/08/17 05:53:57;;;;;;;0.90;0.90;;;;;;;22.87;79.68;98949.00;5098654;27;41535;-81
2023/08/17 05:56:27;;;;;;;1.37;1.10;;;;;;;23.14;79.04;98945.88;5098747;27;42862;-80
2023/08/17 05:58:54;;;;;;;2.40;1.07;;;;;;;23.28;78.75;98947.88;5101689;27;42523;-79
2023/08/17 06:01:23;;;;;;;1.27;0.90;;;;;;;23.28;78.29;98936.22;5116448;27;40067;-81
2023/08/17 06:03:50;;;;;;;1.07;0.97;;;;;;;23.39;78.30;98952.03;5116604;27;41773;-80
2023/08/17 06:06:18;;;;;;;1.40;1.20;;;;;;;23.42;78.40;98953.56;5134481;27;42589;-81
2023/08/17 06:08:45;;;;;;;1.57;1.20;;;;;;;23.34;78.08;98934.69;5115290;27;42583;-81
2023/08/17 06:11:13;;;;;;;2.03;1.00;;;;;;;23.51;78.06;98952.53;5097856;27;39937;-81
2023/08/17 06:13:42;;;;;;;1.10;1.00;;;;;;;23.55;78.06;98943.91;5133520;27;41859;-81
2023/08/17 06:16:10;;;;;;;1.10;0.80;;;;;;;23.60;77.88;98940.69;5133051;27;42671;-81
2023/08/17 06:18:38;;;;;;;1.50;1.20;;;;;;;23.66;77.81;98945.38;5097680;27;41470;-80
2023/08/17 06:21:05;;;;;;;1.67;1.00;;;;;;;23.74;77.52;98941.81;5114501;27;39927;-81
2023/08/17 06:23:33;;;;;;;1.40;1.10;;;;;;;23.82;77.01;98936.34;5097715;27;42125;-81
2023/08/17 06:26:01;;;;;;;1.13;0.80;;;;;;;23.91;76.65;98938.81;5097553;27;41809;-81
2023/08/17 06:28:28;;;;;;;1.43;1.00;;;;;;;24.03;76.40;98946.50;5097567;27;42500;-80
2023/08/17 06:30:57;;;;;;;1.20;1.00;;;;;;;24.22;75.93;98940.63;5114786;27;40202;-81
2023/08/17 06:33:25;;;;;;;1.43;1.10;;;;;;;24.48;74.94;98941.13;5097507;27;42181;-82
2023/08/17 06:35:52;;;;;;;1.30;1.00;;;;;;;24.77;74.05;98944.91;5097558;27;42784;-83
2023/08/17 06:38:20;;;;;;;1.30;1.17;;;;;;;24.85;73.56;98937.53;5114636;27;42165;-81
2023/08/17 06:40:47;;;;;;;1.10;1.00;;;;;;;25.02;73.19;98939.09;5133469;27;39934;-81
2023/08/17 06:43:15;;;;;;;2.20;1.30;;;;;;;25.40;72.16;98947.97;5115610;27;41689;-81
2023/08/17 06:45:43;;;;;;;2.47;1.30;;;;;;;25.64;71.36;98948.72;5133858;27;43523;-82
2023/08/17 06:48:12;;;;;;;1.33;1.07;;;;;;;25.75;70.92;98948.25;5098448;27;42473;-81
2023/08/17 06:50:39;;;;;;;1.53;1.23;;;;;;;25.77;70.74;98957.03;5115612;27;40868;-82
2023/08/17 06:53:08;;;;;;;1.33;1.20;;;;;;;25.63;70.22;98933.50;5098297;27;41073;-81
2023/08/17 06:55:35;;;;;;;2.27;1.20;;;;;;;25.63;70.66;98941.63;5115523;27;42544;-81
2023/08/17 06:58:03;;;;;;;1.17;0.80;;;;;;;25.73;70.22;98947.59;5115527;27;40826;-82
2023/08/17 07:00:30;;;;;;;1.20;1.10;;;;;;;25.82;70.06;98951.88;5133224;27;40282;-82
2023/08/17 07:02:58;;;;;;;1.80;1.30;;;;;;;26.02;69.74;98955.66;5098526;27;40912;-81
2023/08/17 07:05:27;;;;;;;2.20;0.90;;;;;;;26.15;69.54;98959.56;5115336;27;42898;-82
2023/08/17 07:07:55;;;;;;;0.90;0.90;;;;;;;26.26;68.38;98964.47;5114943;27;41285;-82
2023/08/17 07:10:23;;;;;;;1.50;1.33;;;;;;;26.28;68.17;98952.41;5115467;27;39778;-82
2023/08/17 07:12:50;;;;;;;1.30;1.20;;;;;;;26.43;68.53;98965.94;5097875;27;42441;-82
2023/08/17 07:15:17;;;;;;;1.67;1.10;;;;;;;26.40;68.39;98955.47;5098147;27;43001;-82
2023/08/17 07:17:45;;;;;;;1.43;1.33;;;;;;;26.51;67.61;98957.66;5096193;27;42269;-81
2023/08/17 07:20:13;;;;;;;1.47;1.10;;;;;;;26.50;67.83;98936.09;5096949;27;38873;-82
2023/08/17 07:22:42;;;;;;;2.00;1.10;;;;;;;26.81;67.40;98964.59;5096826;27;40781;-81
2023/08/17 07:25:09;;;;;;;1.40;1.30;;;;;;;27.03;67.85;98961.88;5114145;27;42813;-82
2023/08/17 07:27:37;;;;;;;1.30;1.20;;;;;;;27.30;67.13;98974.59;5113760;27;42325;-81
2023/08/17 07:30:05;;;;;;;1.73;1.43;;;;;;;27.49;65.55;98984.75;5132553;27;39748;-80
2023/08/17 07:32:33;;;;;;;1.57;1.30;;;;;;;27.54;63.94;98987.72;5113679;27;40654;-82
2023/08/17 07:35:01;;;;;;;1.50;1.27;;;;;;;27.43;64.56;98950.19;5113913;27;42899;-83
2023/08/17 07:37:33;;;;;;;2.07;1.60;;;;;;;27.64;64.13;98978.34;5114152;27;42931;-82
2023/08/17 07:40:03;;;;;;;1.93;1.40;;;;;;;27.77;63.73;98986.59;5097170;27;40183;-81
2023/08/17 07:42:31;;;;;;;1.50;1.37;;;;;;;27.73;63.82;98975.25;5097742;27;40443;-81
2023/08/17 07:44:59;;;;;;;1.83;1.70;;;;;;;27.76;62.66;98982.19;5115261;27;42709;-80
2023/08/17 07:47:26;;;;;;;1.80;1.57;;;;;;;27.84;63.56;98971.09;5097908;27;41600;-83
2023/08/17 07:49:54;;;;;;;1.97;1.77;;;;;;;28.15;62.13;98990.50;5115371;27;40643;-82
2023/08/17 07:52:21;;;;;;;2.77;1.70;;;;;;;28.46;63.52;98984.50;5114687;27;41786;-82
2023/08/17 07:54:49;;;;;;;1.73;1.63;;;;;;;28.78;61.35;98990.22;5133528;27;42843;-82
2023/08/17 07:57:18;;;;;;;2.23;2.03;;;;;;;28.87;60.09;98972.63;5114352;27;42312;-81
2023/08/17 07:59:45;;;;;;;2.23;1.87;;;;;;;29.15;56.78;99005.13;5114856;27;41836;-81
2023/08/17 08:02:13;;;;;;;2.20;1.70;;;;;;;29.59;58.24;98991.63;5097611;27;41862;-82
2023/08/17 08:04:40;;;;;;;2.47;1.73;;;;;;;29.82;59.55;98969.28;5097583;27;41912;-83
2023/08/17 08:07:08;;;;;;;2.57;1.90;;;;;;;30.02;58.26;98977.41;5114700;27;41395;-82
2023/08/17 08:09:35;;;;;;;2.23;1.87;;;;;;;30.13;56.86;98979.47;5131896;27;39842;-83
2023/08/17 08:12:03;;;;;;;2.40;1.90;;;;;;;30.27;56.57;98981.06;5096606;27;42091;-82
2023/08/17 08:14:32;;;;;;;2.10;1.90;;;;;;;30.36;56.92;98979.75;5117354;27;41807;-82
2023/08/17 08:16:59;;;;;;;2.07;1.87;;;;;;;30.44;56.44;98984.09;5099873;27;41329;-82
2023/08/17 08:19:27;;;;;;;2.93;1.83;;;;;;;30.55;55.82;98993.50;5100153;27;39293;-82
2023/08/17 08:21:54;;;;;;;2.63;2.10;;;;;;;30.62;55.83;99003.34;5099892;27;40649;-83
2023/08/17 08:24:22;;;;;;;2.77;1.60;;;;;;;30.83;56.71;98990.34;5116738;27;43202;-82
2023/08/17 08:26:50;;;;;;;3.03;1.97;;;;;;;30.97;55.30;98994.66;5099464;27;42286;-82
2023/08/17 08:29:18;;;;;;;1.77;1.67;;;;;;;31.27;54.73;98990.22;5132690;27;39924;-81
2023/08/17 08:31:47;;;;;;;2.63;2.00;;;;;;;31.46;52.64;98999.28;5095057;27;41794;-81
2023/08/17 08:34:14;;;;;;;1.90;1.80;;;;;;;31.88;52.77;98999.47;5094697;27;41798;-81
2023/08/17 08:36:42;;;;;;;3.83;2.20;;;;;;;32.50;51.80;98998.22;5112340;27;42210;-83
2023/08/17 08:39:10;;;;;;;2.50;2.30;;;;;;;33.20;50.06;98995.63;5111938;27;40489;-79
2023/08/17 08:41:38;;;;;;;2.33;1.73;;;;;;;33.70;49.27;99015.19;5131034;27;42189;-82
2023/08/17 08:44:06;;;;;;;2.23;2.03;;;;;;;34.07;48.60;99015.72;5130892;27;42984;-84
2023/08/17 08:46:35;;;;;;;2.13;1.97;;;;;;;34.16;47.50;99013.44;5112371;27;42448;-82
2023/08/17 08:49:07;;;;;;;2.27;1.87;;;;;;;34.40;47.75;99005.94;5130879;27;41824;-82
2023/08/17 08:51:41;;;;;;;2.03;1.80;;;;;;;34.49;46.93;99012.75;5130155;27;41788;-82
2023/08/17 08:54:14;;;;;;;1.90;1.50;;;;;;;34.72;46.80;98995.25;5110688;27;43057;-81
2023/08/17 08:56:46;;;;;;;2.30;2.10;;;;;;;35.41;45.19;99023.41;5131519;27;42642;-81
2023/08/17 08:59:13;;;;;;;1.55;1.45;;;;;;;36.27;44.22;99027.38;5109452;27;39816;-82
2023/08/17 09:01:41;;;;;;;2.50;2.05;;;;;;;36.58;43.22;99007.31;5112859;27;40843;-81
2023/08/17 09:04:10;;;;;;;2.40;2.20;;;;;;;37.54;41.81;99029.41;5094822;27;42696;-79
2023/08/17 09:06:43;;;;;;;2.00;1.85;;;;;;;38.75;38.96;99042.94;5111460;27;43145;-78
2023/08/17 09:09:12;;;;;;;1.80;1.70;;;;;;;40.29;36.38;99047.25;5108381;27;40669;-80
2023/08/17 09:11:40;;;;;;;2.28;1.80;;;;;;;41.60;35.21;99014.88;5110967;27;42523;-78
2023/08/17 09:14:08;;;;;;;1.90;1.70;;;;;;;42.75;32.88;99063.84;5094298;27;42756;-78
2023/08/17 09:16:35;;;;;;;1.90;1.80;;;;;;;42.67;32.48;99053.34;5111168;27;40802;-82
2023/08/17 09:19:07;;;;;;;2.55;1.63;;;;;;;42.38;33.32;99038.75;5094482;27;39861;-80
2023/08/17 09:21:36;;;;;;;1.50;1.38;;;;;;;42.51;33.48;99026.88;5094770;27;41886;-83
2023/08/17 09:24:04;;;;;;;2.53;1.60;;;;;;;43.45;32.11;99035.97;5110255;27;43713;-82
2023/08/17 09:26:33;;;;;;;1.40;1.30;;;;;;;44.55;30.68;99038.78;5111303;27;42510;-82
2023/08/17 09:29:02;;;;;;;1.90;1.80;;;;;;;45.69;28.47;99048.56;5129588;27;39977;-83
2023/08/17 09:31:31;;;;;;;2.05;1.83;;;;;;;46.20;27.33;99064.75;5120891;27;41738;-81
2023/08/17 09:33:59;;;;;;;2.03;1.52;;;;;;;45.41;28.62;99042.28;5121631;27;43626;-80
2023/08/17 09:36:27;;;;;;;1.85;1.75;;;;;;;45.39;28.62;99044.56;5114540;27;42322;-80
2023/08/17 09:38:57;;;;;;;1.88;1.77;;;;;;;45.32;28.47;99044.22;5133104;27;40507;-81
2023/08/17 09:41:24;;;;;;;1.85;1.70;;;;;;;44.85;28.14;99049.28;5134415;27;41772;-81
2023/08/17 09:43:52;;;;;;;1.50;1.40;;;;;;;44.32;29.56;99033.13;5115752;27;42119;-80
2023/08/17 09:46:23;;;;;;;1.98;1.85;;;;;;;43.35;nan;99034.19;5116052;27;42208;-82
2023/08/17 09:48:51;;;;;;;3.03;2.45;;;;;;;42.34;32.12;99027.34;5116058;27;39601;-83
2023/08/17 09:51:19;;;;;;;3.10;2.15;;;;;;;41.51;33.26;99003.56;5098342;27;41793;-81
2023/08/17 09:53:52;;;;;;;2.45;2.25;;;;;;;40.66;32.85;99008.72;5130827;27;42641;-82
2023/08/17 09:56:24;;;;;;;2.28;2.08;;;;;;;40.09;34.59;99001.78;5115480;27;41504;-81
2023/08/17 09:58:52;;;;;;;2.28;2.08;;;;;;;39.82;35.09;98981.91;5098206;27;41709;-82
2023/08/17 10:01:22;;;;;;;2.10;2.00;;;;;;;39.59;35.35;98979.75;5116810;27;41827;-82
2023/08/17 10:03:51;;;;;;;2.80;2.20;;;;;;;39.15;36.69;98980.41;5114861;27;42795;-82
2023/08/17 10:06:25;;;;;;;3.13;2.80;;;;;;;38.52;36.82;98982.53;5114913;27;42316;-81
2023/08/17 10:08:58;;;;;;;4.22;2.45;;;;;;;37.92;37.53;98969.34;5111417;27;39790;-79
2023/08/17 10:11:31;;;;;;;2.95;2.75;;;;;;;37.81;37.90;98968.50;5096219;27;41918;-80
2023/08/17 10:14:05;;;;;;;2.67;2.47;;;;;;;37.75;37.54;98955.72;5096687;27;42304;-79
2023/08/17 10:16:42;;;;;;;2.75;2.55;;;;;;;37.97;38.30;98956.34;5112406;27;42296;-79
2023/08/17 10:19:18;;;;;;;2.55;2.35;;;;;;;37.97;39.43;98950.81;5096737;27;39915;-82
2023/08/17 10:21:51;;;;;;;3.08;2.20;;;;;;;37.90;40.48;98953.03;5113965;27;41403;-79
2023/08/17 10:24:21;;;;;;;3.85;2.92;;;;;;;37.74;39.63;98956.84;5096714;27;42011;-81
2023/08/17 10:26:51;;;;;;;2.28;2.17;;;;;;;37.49;39.79;98949.22;5113527;27;42640;-84
2023/08/17 10:29:19;;;;;;;3.05;2.80;;;;;;;37.28;40.00;98953.81;5113497;27;41031;-85
2023/08/17 10:31:46;;;;;;;3.20;2.63;;;;;;;37.09;40.41;98946.19;5097207;27;42171;-84
2023/08/17 10:34:15;;;;;;;5.15;2.50;;;;;;;36.98;40.44;98959.91;5131878;27;43812;-82
2023/08/17 10:36:43;;;;;;;2.65;2.40;;;;;;;36.97;40.51;98949.13;5113657;27;42282;-83
2023/08/17 10:39:25;;;;;;;2.72;2.28;;;;;;;37.00;42.72;98937.56;5113247;27;38678;-81
2023/08/17 10:41:55;;;;;;;2.63;2.30;;;;;;;37.07;42.46;98929.06;5114441;27;40755;-80
2023/08/17 10:44:44;;;;;;;2.70;2.50;;;;;;;37.31;40.81;98953.28;5096770;27;41674;-79
2023/08/17 10:47:24;;;;;;;2.60;2.40;;;;;;;37.66;41.85;98940.78;5097425;27;42368;-80
2023/08/17 10:49:52;;;;;;;3.38;3.08;;;;;;;38.11;40.46;98945.66;5111156;27;40151;-80
2023/08/17 10:52:27;;;;;;;3.90;2.70;;;;;;;38.30;39.51;98948.75;5113212;27;41045;-79
2023/08/17 10:54:56;;;;;;;4.72;2.30;;;;;;;38.60;39.62;98948.81;5097350;27;44418;-80
2023/08/17 10:57:30;;;;;;;2.70;2.42;;;;;;;39.26;38.58;98946.03;5132486;27;41979;-80
2023/08/17 11:00:26;;;;;;;3.05;2.42;;;;;;;40.23;36.97;98960.38;5129111;27;40988;-80
2023/08/17 11:02:56;;;;;;;4.65;2.60;;;;;;;40.90;36.02;98964.38;5099954;27;41746;-81
2023/08/17 11:05:41;;;;;;;2.78;2.58;;;;;;;41.53;35.45;98967.94;5111325;27;41624;-80
2023/08/17 11:08:15;;;;;;;2.78;2.58;;;;;;;41.59;34.08;98971.50;5133186;27;20244;-81
2023/08/17 11:10:49;;;;;;;2.58;2.38;;;;;;;41.63;34.76;98968.97;5103747;27;40261;-81
2023/08/17 11:13:20;;;;;;;3.15;2.85;;;;;;;41.81;32.97;98979.31;5095761;27;41852;-80
2023/08/17 11:15:48;;;;;;;3.03;2.60;;;;;;;42.27;34.09;98963.69;5095386;27;42859;-80
2023/08/17 11:18:18;;;;;;;2.75;2.25;;;;;;;42.25;33.72;98968.75;5111099;27;41357;-81
2023/08/17 11:20:46;;;;;;;2.50;2.28;;;;;;;42.28;33.84;98957.00;5131158;27;40948;-81
2023/08/17 11:23:15;;;;;;;3.90;2.85;;;;;;;42.35;32.50;98958.56;5095549;27;40975;-81
2023/08/17 11:25:43;;;;;;;3.55;2.80;;;;;;;42.16;33.32;98948.25;5112513;27;43254;-81
2023/08/17 11:28:10;;;;;;;3.33;3.10;;;;;;;42.34;33.56;98959.69;5111810;27;41983;-80
2023/08/17 11:30:39;;;;;;;3.15;2.40;;;;;;;42.05;33.99;98966.22;5130966;27;42702;-81
2023/08/17 11:33:08;;;;;;;2.95;2.75;;;;;;;41.75;33.78;98969.38;5131027;27;41370;-80
2023/08/17 11:35:36;;;;;;;3.72;3.35;;;;;;;41.36;32.21;98973.13;5130782;27;42849;-81
2023/08/17 11:38:05;;;;;;;2.90;2.70;;;;;;;41.71;34.63;98957.19;5130446;27;42177;-81
2023/08/17 11:40:33;;;;;;;2.75;2.55;;;;;;;42.20;33.11;98965.19;5095902;27;39090;-81
2023/08/17 11:43:01;;;;;;;2.78;2.58;;;;;;;42.47;32.98;98958.97;5095866;27;41068;-81
2023/08/17 11:45:33;;;;;;;5.55;3.05;;;;;;;42.48;32.55;98949.50;5096491;27;43582;-80
2023/08/17 11:48:03;;;;;;;3.22;2.90;;;;;;;43.06;33.49;98957.44;5098026;27;41656;-81
2023/08/17 11:50:34;;;;;;;3.38;2.90;;;;;;;43.63;32.86;98956.97;5132625;27;40843;-80
2023/08/17 11:53:02;;;;;;;3.83;2.85;;;;;;;43.75;31.52;98952.84;5134404;27;42417;-81
2023/08/17 11:55:29;;;;;;;2.78;2.58;;;;;;;43.61;31.84;98967.63;5134393;27;43642;-80
2023/08/17 11:57:57;;;;;;;2.90;2.70;;;;;;;43.86;31.03;98973.81;5135277;27;43103;-81
2023/08/17 12:00:28;;;;;;;2.95;2.75;;;;;;;44.15;30.62;98974.28;5116796;27;38636;-82
2023/08/17 12:02:55;;;;;;;2.53;2.33;;;;;;;44.85;29.91;98975.78;5135474;27;41809;-82
2023/08/17 12:05:26;;;;;;;3.00;2.80;;;;;;;45.47;28.81;98973.88;5133028;27;42492;-80
2023/08/17 12:07:55;;;;;;;3.03;2.83;;;;;;;45.73;28.46;98972.03;5117088;27;42038;-81
2023/08/17 12:10:23;;;;;;;3.45;3.15;;;;;;;45.49;27.90;98934.38;5114650;27;40846;-82
2023/08/17 12:12:53;;;;;;;3.35;3.00;;;;;;;46.02;28.24;98959.44;5116321;27;41725;-81
2023/08/17 12:15:20;;;;;;;2.80;2.60;;;;;;;47.07;27.29;98974.03;5113369;27;43271;-82
2023/08/17 12:17:49;;;;;;;2.80;2.60;;;;;;;48.09;25.73;98970.31;5134702;27;42509;-82
2023/08/17 12:20:18;;;;;;;2.95;2.75;;;;;;;49.07;25.23;98969.72;5096407;27;38823;-82
2023/08/17 12:22:48;;;;;;;2.63;2.42;;;;;;;49.94;24.61;98970.34;5095026;27;41245;-82
2023/08/17 12:25:22;;;;;;;2.60;2.40;;;;;;;50.66;24.03;98973.38;5127154;27;43630;-82
2023/08/17 12:27:49;;;;;;;3.00;2.80;;;;;;;51.15;22.04;98967.53;5094748;27;42402;-83
2023/08/17 12:30:27;;;;;;;2.40;2.30;;;;;;;51.82;22.58;98974.94;5110898;27;38736;-82
2023/08/17 12:32:55;;;;;;;2.90;2.70;;;;;;;52.04;20.54;98977.13;5111618;27;40970;-83
2023/08/17 12:35:24;;;;;;;2.85;2.65;;;;;;;52.39;21.83;98959.34;5094572;27;41744;-83
2023/08/17 12:37:54;;;;;;;2.80;2.60;;;;;;;52.72;20.70;98965.31;5129949;27;42337;-82
2023/08/17 12:40:22;;;;;;;2.70;2.50;;;;;;;52.80;21.21;98963.44;5130064;27;40888;-82
2023/08/17 12:42:53;;;;;;;2.83;2.63;;;;;;;53.04;21.17;98965.19;5096009;27;42086;-81
2023/08/17 12:45:20;;;;;;;3.20;2.90;;;;;;;52.92;20.93;98959.69;5094811;27;41771;-81
2023/08/17 12:47:48;;;;;;;3.22;3.03;;;;;;;51.25;21.47;98961.38;5111946;27;41368;-81
2023/08/17 12:50:17;;;;;;;3.40;3.17;;;;;;;50.55;21.87;98961.81;5112016;27;39028;-81
2023/08/17 12:52:44;;;;;;;2.80;2.60;;;;;;;50.78;22.70;98939.50;5111071;27;41139;-81
2023/08/17 12:55:13;;;;;;;2.72;2.53;;;;;;;51.32;22.11;98951.06;5111826;27;41703;-80
2023/08/17 12:57:41;;;;;;;2.70;2.50;;;;;;;51.80;22.20;98949.09;5111580;27;41027;-81
2023/08/17 13:00:09;;;;;;;3.22;3.03;;;;;;;52.12;21.38;98943.38;5093783;27;41205;-82
2023/08/17 13:02:37;;;;;;;3.28;3.03;;;;;;;52.14;22.05;98947.47;5094030;27;41498;-82
2023/08/17 13:05:05;;;;;;;3.10;2.90;;;;;;;51.99;21.62;98946.31;5094112;27;42097;-82
2023/08/17 13:07:32;;;;;;;2.90;2.70;;;;;;;51.14;22.59;98938.47;5129935;27;43240;-81
2023/08/17 13:10:00;;;;;;;2.80;2.60;;;;;;;51.35;22.36;98944.69;5129902;27;40936;-82
2023/08/17 13:12:29;;;;;;;3.40;3.20;;;;;;;51.70;22.18;98935.50;5111407;27;41709;-81
2023/08/17 13:14:56;;;;;;;2.90;2.70;;;;;;;51.98;21.84;98932.56;5111386;27;44118;-81
2023/08/17 13:17:24;;;;;;;3.47;3.17;;;;;;;51.75;20.74;98928.75;5092670;27;41765;-82
2023/08/17 13:19:51;;;;;;;2.88;2.67;;;;;;;51.49;21.93;98926.47;5110558;27;40424;-82
2023/08/17 13:22:19;;;;;;;3.03;2.83;;;;;;;51.22;21.99;98920.56;5110268;27;41144;-81
2023/08/17 13:24:46;;;;;;;3.13;2.92;;;;;;;50.67;22.53;98925.09;5093366;27;43028;-82
2023/08/17 13:27:14;;;;;;;3.20;3.00;;;;;;;50.17;23.18;98916.28;5111041;27;41477;-82
2023/08/17 13:29:43;;;;;;;3.28;2.97;;;;;;;49.79;23.40;98902.59;5110752;27;39068;-82
2023/08/17 13:32:10;;;;;;;3.30;3.00;;;;;;;49.49;23.80;98907.63;5093718;27;42122;-81
2023/08/17 13:34:38;;;;;;;3.40;3.10;;;;;;;49.25;23.87;98905.63;5128957;27;43680;-81
2023/08/17 13:37:08;;;;;;;2.97;2.78;;;;;;;48.91;23.41;98912.47;5128986;27;43041;-82
2023/08/17 13:39:35;;;;;;;3.10;2.90;;;;;;;48.43;24.42;98899.00;5110724;27;39138;-81
2023/08/17 13:42:03;;;;;;;4.95;3.10;;;;;;;48.00;23.88;98896.50;5093760;27;40926;-81
2023/08/17 13:44:30;;;;;;;3.20;3.00;;;;;;;48.02;24.23;98877.34;5110822;27;42727;-80
2023/08/17 13:46:59;;;;;;;3.20;2.92;;;;;;;48.35;24.63;98881.03;5110877;27;43536;-81